Time;durP1;ratioP1;P1;durP2;ratioP2;P2;SDS_P1;SDS_P2;PMS_P1;PMS_P2;Temp;Humidity;BMP_temperature;BMP_pressure;BME280_temperature;BME280_humidity;BME280_pressure;Samples;Min_cycle;Max_cycle;Signal;HPM_P1;HPM_P2
2021/08/06 00:01:03;;;;;;;10.60;2.35;;;18.10;82.80;;;;;;5092411;28;20535;-88
2021/08/06 00:03:31;;;;;;;8.90;1.60;;;18.10;82.90;;;;;;5093108;28;20540;-87
2021/08/06 00:05:58;;;;;;;6.97;1.70;;;18.10;82.90;;;;;;5094003;28;20040;-86
2021/08/06 00:08:25;;;;;;;6.25;1.83;;;18.10;82.90;;;;;;5124127;27;20456;-90
2021/08/06 00:10:52;;;;;;;7.13;1.80;;;18.20;83.00;;;;;;5102191;28;20109;-94
2021/08/06 00:13:19;;;;;;;8.65;2.00;;;18.10;83.00;;;;;;5098599;28;20051;-91
2021/08/06 00:15:45;;;;;;;12.73;1.90;;;18.10;83.10;;;;;;5095552;28;20052;-93
2021/08/06 00:18:12;;;;;;;6.95;1.98;;;18.10;83.10;;;;;;5100497;28;20045;-91
2021/08/06 00:20:40;;;;;;;5.20;1.70;;;18.10;83.20;;;;;;5096503;28;20069;-92
2021/08/06 00:23:07;;;;;;;10.88;1.90;;;18.10;83.10;;;;;;5092150;28;20048;-92
2021/08/06 00:25:34;;;;;;;4.32;1.40;;;18.10;83.10;;;;;;5093809;28;20468;-92
2021/08/06 00:28:01;;;;;;;4.28;1.60;;;18.10;83.00;;;;;;5088863;28;20053;-90
2021/08/06 00:30:28;;;;;;;3.42;1.50;;;18.10;82.90;;;;;;5094786;28;20040;-91
2021/08/06 00:32:56;;;;;;;8.02;1.65;;;18.00;82.70;;;;;;5093719;28;20468;-89
2021/08/06 00:35:23;;;;;;;5.20;1.75;;;18.00;82.70;;;;;;5092930;28;20040;-89
2021/08/06 00:37:51;;;;;;;3.03;1.40;;;18.00;82.70;;;;;;5092277;28;20065;-89
2021/08/06 00:40:21;;;;;;;6.60;1.50;;;18.00;82.60;;;;;;5090898;28;20040;-89
2021/08/06 00:42:48;;;;;;;6.20;1.50;;;18.00;82.50;;;;;;5092302;28;20101;-89
2021/08/06 00:45:16;;;;;;;4.03;1.45;;;18.00;82.50;;;;;;5090331;28;20117;-89
2021/08/06 00:47:43;;;;;;;4.55;1.60;;;18.00;82.50;;;;;;5094672;28;20490;-89
2021/08/06 00:50:11;;;;;;;6.95;1.30;;;18.00;82.40;;;;;;5091584;28;20391;-90
2021/08/06 00:52:39;;;;;;;6.28;1.48;;;18.00;82.40;;;;;;5093056;28;20563;-89
2021/08/06 00:55:07;;;;;;;3.53;1.40;;;18.00;82.40;;;;;;5089922;28;20047;-90
2021/08/06 00:57:34;;;;;;;2.80;1.30;;;18.00;82.30;;;;;;5091999;28;20101;-92
2021/08/06 01:00:01;;;;;;;4.97;1.30;;;18.00;82.30;;;;;;5092059;28;20117;-90
2021/08/06 01:03:01;;;;;;;5.88;1.50;;;18.00;82.30;;;;;;5093929;28;20056;-90
2021/08/06 01:05:30;;;;;;;6.25;1.10;;;18.00;82.30;;;;;;5092829;28;20052;-85
2021/08/06 01:08:19;;;;;;;4.97;1.50;;;18.00;82.30;;;;;;5091279;28;20505;-87
2021/08/06 01:11:01;;;;;;;8.23;1.48;;;18.00;82.40;;;;;;5092050;28;20048;-83
2021/08/06 01:13:44;;;;;;;9.82;2.15;;;17.90;82.40;;;;;;5091531;28;20048;-85
2021/08/06 01:16:13;;;;;;;4.80;1.52;;;17.90;82.40;;;;;;5092445;28;20048;-84
2021/08/06 01:19:08;;;;;;;6.47;1.33;;;17.90;82.40;;;;;;5086329;28;20055;-85
2021/08/06 01:21:45;;;;;;;6.07;1.75;;;17.90;82.20;;;;;;5040575;28;20041;-85
2021/08/06 01:24:16;;;;;;;3.97;1.40;;;17.80;81.80;;;;;;5054105;28;20056;-85
2021/08/06 01:26:45;;;;;;;7.03;1.60;;;17.70;81.30;;;;;;5051866;28;20045;-86
2021/08/06 01:29:12;;;;;;;4.88;1.48;;;17.70;81.30;;;;;;5053008;28;20098;-87
2021/08/06 01:31:40;;;;;;;9.88;1.40;;;17.60;81.40;;;;;;5053389;28;20087;-85
2021/08/06 01:34:07;;;;;;;4.75;1.65;;;17.60;81.50;;;;;;5052571;28;20045;-85
2021/08/06 01:36:34;;;;;;;5.38;1.40;;;17.60;81.50;;;;;;5069187;28;20037;-85
2021/08/06 01:39:02;;;;;;;5.13;1.77;;;17.60;81.50;;;;;;5052400;28;20059;-85
2021/08/06 01:41:46;;;;;;;6.72;1.50;;;17.60;81.60;;;;;;5051452;28;20151;-85
2021/08/06 01:44:29;;;;;;;4.75;1.75;;;17.60;81.60;;;;;;5050575;28;20068;-86
2021/08/06 01:47:14;;;;;;;8.27;1.90;;;17.60;81.60;;;;;;5052420;28;20465;-85
2021/08/06 01:49:46;;;;;;;5.22;2.00;;;17.60;81.70;;;;;;5052243;28;20061;-86
2021/08/06 01:52:14;;;;;;;7.47;2.08;;;17.60;81.70;;;;;;5052207;28;20458;-86
2021/08/06 01:54:43;;;;;;;10.20;2.10;;;17.60;81.80;;;;;;5052167;28;20111;-85
2021/08/06 01:57:11;;;;;;;11.15;2.50;;;17.50;81.80;;;;;;5053862;28;20045;-84
2021/08/06 01:59:39;;;;;;;5.82;2.25;;;17.50;81.90;;;;;;5087879;28;20109;-85
2021/08/06 02:02:08;;;;;;;11.10;2.58;;;17.50;81.90;;;;;;5089220;28;20498;-85
2021/08/06 02:04:36;;;;;;;11.98;2.58;;;17.50;81.90;;;;;;5091567;28;20040;-84
2021/08/06 02:07:03;;;;;;;11.75;2.72;;;17.50;81.90;;;;;;5091494;28;20483;-86
2021/08/06 02:09:30;;;;;;;16.38;2.42;;;17.50;81.90;;;;;;5090032;28;20470;-86
2021/08/06 02:11:57;;;;;;;8.80;2.60;;;17.50;81.90;;;;;;5091075;28;20052;-84
2021/08/06 02:14:24;;;;;;;11.13;2.25;;;17.40;81.90;;;;;;5093266;28;20048;-85
2021/08/06 02:16:53;;;;;;;6.43;2.05;;;17.40;81.90;;;;;;5091163;28;20484;-84
2021/08/06 02:19:22;;;;;;;10.02;2.55;;;17.40;82.00;;;;;;5091029;28;20052;-85
2021/08/06 02:21:53;;;;;;;9.30;2.55;;;17.40;82.00;;;;;;5088574;28;20456;-84
2021/08/06 02:24:21;;;;;;;12.73;2.83;;;17.40;82.00;;;;;;5091105;28;20410;-84
2021/08/06 02:26:49;;;;;;;13.85;2.35;;;17.40;82.00;;;;;;5091858;28;20460;-86
2021/08/06 02:29:20;;;;;;;13.10;2.30;;;17.40;82.00;;;;;;5086461;28;20093;-86
2021/08/06 02:31:47;;;;;;;9.00;2.47;;;17.40;82.00;;;;;;5091106;28;20120;-85
2021/08/06 02:34:15;;;;;;;7.70;2.75;;;17.40;82.10;;;;;;5090927;28;20040;-86
2021/08/06 02:36:44;;;;;;;7.78;2.53;;;17.40;82.10;;;;;;5091042;28;20052;-86
2021/08/06 02:39:19;;;;;;;14.02;2.33;;;17.40;82.10;;;;;;5075127;28;20049;-84
2021/08/06 02:41:47;;;;;;;7.72;2.78;;;17.40;82.10;;;;;;5092339;28;20101;-84
2021/08/06 02:44:14;;;;;;;7.50;2.80;;;17.40;82.10;;;;;;5091855;28;20051;-85
2021/08/06 02:46:41;;;;;;;10.18;2.47;;;17.40;82.10;;;;;;5089505;28;20048;-85
2021/08/06 02:49:09;;;;;;;10.73;2.72;;;17.40;82.20;;;;;;5090694;28;20086;-84
2021/08/06 02:51:36;;;;;;;8.35;2.50;;;17.40;82.20;;;;;;5090834;28;20097;-84
2021/08/06 02:54:03;;;;;;;9.98;2.78;;;17.40;82.20;;;;;;5089184;28;20567;-85
2021/08/06 02:56:30;;;;;;;7.50;2.47;;;17.40;82.20;;;;;;5092785;28;20052;-84
2021/08/06 02:58:57;;;;;;;10.40;2.08;;;17.40;82.20;;;;;;5088369;28;20109;-84
2021/08/06 03:01:24;;;;;;;9.95;2.50;;;17.40;82.20;;;;;;5089100;28;20044;-86
2021/08/06 03:03:51;;;;;;;8.30;2.67;;;17.40;82.20;;;;;;5087196;28;20044;-85
2021/08/06 03:06:18;;;;;;;8.13;2.30;;;17.40;82.20;;;;;;5088337;28;20509;-86
2021/08/06 03:08:45;;;;;;;16.88;3.05;;;17.40;82.20;;;;;;5090854;28;20082;-87
2021/08/06 03:11:12;;;;;;;15.70;2.72;;;17.40;82.30;;;;;;5091355;28;20051;-88
2021/08/06 03:13:39;;;;;;;8.50;2.95;;;17.30;82.40;;;;;;5090195;28;20056;-86
2021/08/06 03:16:05;;;;;;;16.67;2.85;;;17.30;82.50;;;;;;5089348;28;20052;-87
2021/08/06 03:18:32;;;;;;;8.27;2.90;;;17.30;82.60;;;;;;5090301;28;20043;-86
2021/08/06 03:20:59;;;;;;;6.50;2.85;;;17.30;82.70;;;;;;5090301;28;20098;-86
2021/08/06 03:23:26;;;;;;;8.10;2.55;;;17.30;82.80;;;;;;5092150;28;20127;-86
2021/08/06 03:25:53;;;;;;;10.63;2.25;;;17.30;82.80;;;;;;5090175;28;20501;-86
2021/08/06 03:28:20;;;;;;;11.07;2.65;;;17.30;82.80;;;;;;5090173;28;20524;-86
2021/08/06 03:30:48;;;;;;;11.25;2.42;;;17.20;82.80;;;;;;5090274;28;20052;-84
2021/08/06 03:33:15;;;;;;;10.02;2.50;;;17.20;82.80;;;;;;5090203;28;20056;-85
2021/08/06 03:35:42;;;;;;;8.80;3.08;;;17.20;82.80;;;;;;5091898;28;20048;-85
2021/08/06 03:38:21;;;;;;;9.32;3.05;;;17.20;82.80;;;;;;5087721;28;20044;-86
2021/08/06 03:40:49;;;;;;;10.30;2.63;;;17.20;82.80;;;;;;5087496;28;20048;-84
2021/08/06 03:43:16;;;;;;;7.40;2.38;;;17.10;82.90;;;;;;5088710;28;20048;-84
2021/08/06 03:45:43;;;;;;;18.73;2.80;;;17.10;82.80;;;;;;5090226;28;20048;-85
2021/08/06 03:48:10;;;;;;;6.57;2.60;;;17.10;82.80;;;;;;5073163;28;20048;-85
2021/08/06 03:50:37;;;;;;;10.27;2.90;;;17.10;82.90;;;;;;5086782;28;20089;-84
2021/08/06 03:53:05;;;;;;;10.10;2.40;;;17.00;82.90;;;;;;5089888;28;20093;-84
2021/08/06 03:55:32;;;;;;;6.45;2.15;;;17.00;82.90;;;;;;5089806;28;20059;-84
2021/08/06 03:57:59;;;;;;;10.63;2.50;;;17.00;82.90;;;;;;5088516;28;20044;-84
2021/08/06 04:00:30;;;;;;;8.68;2.83;;;17.00;82.90;;;;;;5091088;28;20040;-84
2021/08/06 04:02:58;;;;;;;5.82;2.30;;;17.00;82.90;;;;;;5089975;28;20055;-84
2021/08/06 04:05:25;;;;;;;8.32;2.10;;;16.90;82.90;;;;;;5092210;28;20047;-87
2021/08/06 04:07:51;;;;;;;11.10;2.45;;;16.90;82.80;;;;;;5088069;28;20051;-86
2021/08/06 04:10:20;;;;;;;11.75;2.50;;;16.90;82.80;;;;;;5087704;28;20059;-84
2021/08/06 04:12:48;;;;;;;7.65;2.40;;;16.90;82.80;;;;;;5090704;28;20044;-84
2021/08/06 04:15:16;;;;;;;15.68;2.40;;;16.90;82.80;;;;;;5090745;28;20051;-85
2021/08/06 04:17:43;;;;;;;6.97;2.60;;;16.80;82.80;;;;;;5091617;28;20074;-84
2021/08/06 04:20:11;;;;;;;7.43;2.10;;;16.90;82.80;;;;;;5091962;28;20058;-85
2021/08/06 04:22:37;;;;;;;17.70;2.47;;;16.80;82.80;;;;;;5091958;28;20040;-84
2021/08/06 04:25:07;;;;;;;13.23;2.35;;;16.80;82.70;;;;;;5093588;28;20044;-84
2021/08/06 04:27:34;;;;;;;9.55;2.10;;;16.80;82.70;;;;;;5093492;28;20044;-85
2021/08/06 04:30:01;;;;;;;7.30;2.60;;;16.70;82.70;;;;;;5093092;28;20580;-84
2021/08/06 04:32:28;;;;;;;16.70;2.50;;;16.80;82.80;;;;;;5094432;28;20418;-85
2021/08/06 04:34:55;;;;;;;12.05;2.45;;;16.70;82.70;;;;;;5093423;28;20514;-86
2021/08/06 04:37:22;;;;;;;13.63;2.35;;;16.60;82.70;;;;;;5093738;28;20044;-84
2021/08/06 04:39:49;;;;;;;12.05;2.55;;;16.60;82.70;;;;;;5093150;28;20074;-86
2021/08/06 04:42:16;;;;;;;12.35;2.42;;;16.70;82.80;;;;;;5092202;28;20077;-84
2021/08/06 04:44:43;;;;;;;8.88;2.22;;;16.60;82.80;;;;;;5094487;28;20571;-85
2021/08/06 04:47:10;;;;;;;7.75;2.13;;;16.60;82.70;;;;;;5092823;28;20060;-85
2021/08/06 04:49:37;;;;;;;13.23;2.70;;;16.60;82.70;;;;;;5092580;28;20498;-87
2021/08/06 04:52:04;;;;;;;8.45;2.50;;;16.50;82.70;;;;;;5092609;28;20109;-86
2021/08/06 04:54:31;;;;;;;11.20;2.50;;;16.50;82.80;;;;;;5093139;28;20055;-85
2021/08/06 04:56:58;;;;;;;7.65;2.75;;;16.50;82.80;;;;;;5093305;28;20047;-86
2021/08/06 04:59:25;;;;;;;4.68;2.35;;;16.40;82.80;;;;;;5092090;28;20048;-86
2021/08/06 05:01:52;;;;;;;18.20;2.70;;;16.50;82.90;;;;;;5092756;28;20180;-84
2021/08/06 05:04:19;;;;;;;8.02;2.20;;;16.40;83.00;;;;;;5092112;28;20105;-84
2021/08/06 05:06:46;;;;;;;15.88;2.85;;;16.40;83.00;;;;;;5090210;28;20479;-84
2021/08/06 05:09:12;;;;;;;12.10;2.88;;;16.40;83.00;;;;;;5092640;28;20040;-85
2021/08/06 05:11:39;;;;;;;19.23;3.08;;;16.40;83.00;;;;;;5094882;28;20127;-83
2021/08/06 05:14:06;;;;;;;11.23;3.45;;;16.40;83.10;;;;;;5089860;28;20052;-84
2021/08/06 05:16:33;;;;;;;9.52;2.72;;;16.40;83.10;;;;;;5092485;28;20073;-85
2021/08/06 05:19:02;;;;;;;11.63;3.22;;;16.40;83.10;;;;;;5090787;28;20055;-84
2021/08/06 05:21:29;;;;;;;10.98;3.20;;;16.40;83.10;;;;;;5125125;27;20044;-85
2021/08/06 05:23:55;;;;;;;12.68;3.65;;;16.40;83.10;;;;;;5092059;28;20105;-85
2021/08/06 05:26:22;;;;;;;9.98;3.10;;;16.40;83.20;;;;;;5092504;28;20048;-84
2021/08/06 05:28:49;;;;;;;7.07;3.05;;;16.40;83.20;;;;;;5092262;28;20044;-83
2021/08/06 05:31:16;;;;;;;9.43;3.00;;;16.40;83.20;;;;;;5092960;28;20510;-86
2021/08/06 05:33:43;;;;;;;9.63;3.30;;;16.40;83.30;;;;;;5090882;28;20048;-84
2021/08/06 05:36:10;;;;;;;9.05;3.00;;;16.40;83.40;;;;;;5075462;28;20043;-85
2021/08/06 05:38:37;;;;;;;9.02;3.08;;;16.30;83.50;;;;;;5089845;28;20105;-84
2021/08/06 05:41:03;;;;;;;8.35;2.88;;;16.30;83.50;;;;;;5091797;28;20044;-84
2021/08/06 05:43:30;;;;;;;13.43;2.83;;;16.30;83.60;;;;;;5093306;28;20047;-84
2021/08/06 05:45:57;;;;;;;7.60;2.63;;;16.30;83.60;;;;;;5090963;28;20044;-85
2021/08/06 05:48:24;;;;;;;12.93;3.25;;;16.40;83.70;;;;;;5091554;28;20048;-84
2021/08/06 05:50:51;;;;;;;14.00;3.45;;;16.40;83.80;;;;;;5092600;28;20517;-85
2021/08/06 05:53:18;;;;;;;10.40;2.78;;;16.40;83.90;;;;;;5091265;28;20044;-84
2021/08/06 05:55:45;;;;;;;7.28;3.00;;;16.40;83.90;;;;;;5089680;28;20105;-84
2021/08/06 05:58:11;;;;;;;8.70;2.50;;;16.50;84.00;;;;;;5090357;28;20575;-84
2021/08/06 06:00:39;;;;;;;7.88;2.95;;;16.50;84.10;;;;;;5091731;28;20074;-84
2021/08/06 06:03:06;;;;;;;15.02;2.88;;;16.50;84.10;;;;;;5092382;28;20048;-84
2021/08/06 06:05:32;;;;;;;11.35;3.20;;;16.60;84.10;;;;;;5093897;28;20578;-85
2021/08/06 06:07:59;;;;;;;15.73;2.70;;;16.60;84.00;;;;;;5089958;28;20101;-85
2021/08/06 06:10:26;;;;;;;11.63;2.65;;;16.60;84.00;;;;;;5117063;27;20040;-85
2021/08/06 06:12:53;;;;;;;12.88;3.00;;;16.60;84.00;;;;;;5081763;28;20059;-84
2021/08/06 06:15:20;;;;;;;10.95;2.50;;;16.70;84.00;;;;;;5091299;28;20078;-86
2021/08/06 06:17:48;;;;;;;10.43;2.63;;;16.70;84.00;;;;;;5091284;28;20047;-85
2021/08/06 06:20:17;;;;;;;14.93;2.97;;;16.70;84.00;;;;;;5092358;28;20105;-86
2021/08/06 06:22:44;;;;;;;14.15;2.55;;;16.80;84.10;;;;;;5089928;28;20084;-85
2021/08/06 06:25:12;;;;;;;12.88;2.63;;;16.80;84.10;;;;;;5089745;28;20043;-85
2021/08/06 06:27:48;;;;;;;8.27;2.60;;;16.90;84.20;;;;;;5086182;28;20040;-85
2021/08/06 06:30:16;;;;;;;8.13;2.72;;;16.90;84.10;;;;;;5073780;28;20569;-86
2021/08/06 06:32:43;;;;;;;9.25;2.80;;;16.90;83.90;;;;;;5092116;28;20056;-87
2021/08/06 06:35:09;;;;;;;13.07;2.20;;;17.00;83.80;;;;;;5084846;28;20055;-87
2021/08/06 06:37:36;;;;;;;11.38;2.80;;;17.00;83.80;;;;;;5090936;28;20514;-87
2021/08/06 06:40:04;;;;;;;9.80;2.10;;;17.10;83.80;;;;;;5089534;28;20078;-87
2021/08/06 06:42:31;;;;;;;10.07;2.40;;;17.00;83.60;;;;;;5090205;28;20048;-88
2021/08/06 06:44:58;;;;;;;11.38;2.00;;;17.10;83.50;;;;;;5091027;28;20109;-87
2021/08/06 06:47:24;;;;;;;9.57;2.05;;;17.10;83.40;;;;;;5092706;28;20445;-87
2021/08/06 06:49:51;;;;;;;8.02;2.15;;;17.10;83.30;;;;;;5089632;28;20113;-89
2021/08/06 06:52:18;;;;;;;6.63;1.92;;;17.10;83.20;;;;;;5090664;28;20048;-86
2021/08/06 06:54:45;;;;;;;7.05;2.00;;;17.10;83.10;;;;;;5090726;28;20044;-87
2021/08/06 06:57:12;;;;;;;7.88;2.30;;;17.10;83.10;;;;;;5090854;28;20044;-86
2021/08/06 06:59:40;;;;;;;12.27;2.17;;;17.00;83.10;;;;;;5092737;28;20044;-88
2021/08/06 07:02:08;;;;;;;13.65;2.28;;;17.10;83.10;;;;;;5090266;28;20048;-87
2021/08/06 07:04:34;;;;;;;17.10;2.22;;;17.10;83.10;;;;;;5090595;28;20395;-87
2021/08/06 07:07:02;;;;;;;8.63;2.20;;;17.10;83.20;;;;;;5090458;28;20130;-87
2021/08/06 07:09:29;;;;;;;11.63;2.33;;;17.10;83.10;;;;;;5090452;28;20113;-88
2021/08/06 07:11:56;;;;;;;12.63;2.50;;;17.10;83.10;;;;;;5090614;28;20455;-90
2021/08/06 07:14:23;;;;;;;6.38;1.83;;;17.10;83.10;;;;;;5092397;28;20109;-90
2021/08/06 07:16:50;;;;;;;8.25;2.30;;;17.10;83.00;;;;;;5090096;28;20126;-89
2021/08/06 07:19:17;;;;;;;6.10;2.03;;;17.10;83.00;;;;;;5088069;28;20105;-87
2021/08/06 07:21:48;;;;;;;8.52;2.20;;;17.10;83.00;;;;;;5090371;28;20044;-90
2021/08/06 07:24:15;;;;;;;9.88;2.22;;;17.10;82.90;;;;;;5073570;28;20101;-89
2021/08/06 07:26:42;;;;;;;10.18;2.30;;;17.10;82.90;;;;;;5092054;28;20102;-87
2021/08/06 07:29:09;;;;;;;8.85;2.00;;;17.10;82.90;;;;;;5088382;28;20109;-87
2021/08/06 07:31:36;;;;;;;8.70;2.20;;;17.10;82.90;;;;;;5088659;28;20089;-90
2021/08/06 07:34:03;;;;;;;7.78;2.10;;;17.10;82.80;;;;;;5088575;28;20055;-87
2021/08/06 07:36:30;;;;;;;12.32;2.40;;;17.10;82.80;;;;;;5088193;28;20048;-88
2021/08/06 07:38:57;;;;;;;9.50;2.30;;;17.10;82.80;;;;;;5089861;28;20052;-88
2021/08/06 07:41:23;;;;;;;9.45;2.35;;;17.10;82.80;;;;;;5090639;28;20056;-88
2021/08/06 07:43:51;;;;;;;6.93;2.00;;;17.00;82.70;;;;;;5090792;28;20056;-90
2021/08/06 07:46:19;;;;;;;6.68;1.88;;;17.00;82.70;;;;;;5087803;28;20422;-91
2021/08/06 07:48:46;;;;;;;10.50;2.40;;;17.00;82.80;;;;;;5089629;28;20056;-88
2021/08/06 07:51:13;;;;;;;10.88;2.30;;;16.90;82.70;;;;;;5087907;28;20052;-90
2021/08/06 07:53:40;;;;;;;11.00;2.20;;;16.90;82.80;;;;;;5092703;28;20502;-89
2021/08/06 07:56:07;;;;;;;12.43;2.45;;;17.00;82.80;;;;;;5091112;28;20101;-89
2021/08/06 07:58:33;;;;;;;12.48;1.98;;;17.00;82.80;;;;;;5093264;28;20093;-90
2021/08/06 08:01:00;;;;;;;7.30;1.98;;;17.00;82.80;;;;;;5125128;27;20102;-90
2021/08/06 08:03:28;;;;;;;8.55;2.40;;;17.00;82.80;;;;;;5093746;28;20036;-88
2021/08/06 08:05:55;;;;;;;9.77;2.40;;;17.10;82.90;;;;;;5110485;27;20537;-87
2021/08/06 08:08:22;;;;;;;10.32;2.28;;;17.10;82.90;;;;;;5075764;28;20044;-88
2021/08/06 08:10:49;;;;;;;14.05;2.30;;;17.20;82.90;;;;;;5083813;28;20097;-89
2021/08/06 08:13:16;;;;;;;9.57;1.80;;;17.30;82.70;;;;;;5094534;28;20048;-89
2021/08/06 08:15:43;;;;;;;8.88;2.20;;;17.40;82.60;;;;;;5086905;28;20048;-90
2021/08/06 08:18:11;;;;;;;9.95;2.35;;;17.40;82.60;;;;;;5077581;28;20044;-89
2021/08/06 08:20:38;;;;;;;9.98;2.40;;;17.40;82.50;;;;;;5091675;28;20506;-89
2021/08/06 08:23:05;;;;;;;21.10;2.78;;;17.50;82.40;;;;;;5095823;28;20505;-88
2021/08/06 08:25:32;;;;;;;7.63;1.77;;;17.60;82.20;;;;;;5091898;28;20105;-88
2021/08/06 08:27:59;;;;;;;5.55;1.92;;;17.60;82.10;;;;;;5092978;28;20090;-85
2021/08/06 08:30:26;;;;;;;9.30;2.00;;;17.70;81.80;;;;;;5091940;28;20045;-89
2021/08/06 08:32:56;;;;;;;9.13;2.35;;;17.70;81.70;;;;;;5092525;28;20040;-91
2021/08/06 08:35:23;;;;;;;12.32;2.45;;;17.70;81.70;;;;;;5100242;28;20048;-93
2021/08/06 08:37:50;;;;;;;7.57;1.77;;;17.80;81.60;;;;;;5098081;28;20106;-92
2021/08/06 08:40:17;;;;;;;9.82;1.77;;;17.80;81.70;;;;;;5094804;28;20097;-91
2021/08/06 08:42:44;;;;;;;12.80;2.00;;;17.80;81.60;;;;;;5093035;28;20101;-87
2021/08/06 08:45:12;;;;;;;8.88;2.00;;;17.80;81.50;;;;;;5093729;28;20098;-89
2021/08/06 08:47:43;;;;;;;7.60;1.65;;;17.80;81.50;;;;;;5095382;28;20052;-87
2021/08/06 08:50:12;;;;;;;8.30;1.98;;;17.80;81.60;;;;;;5092393;28;20048;-86
2021/08/06 08:52:38;;;;;;;4.18;1.40;;;17.80;81.60;;;;;;5087071;28;20036;-87
2021/08/06 08:55:06;;;;;;;6.63;1.75;;;17.80;81.80;;;;;;5092033;28;20044;-87
2021/08/06 08:57:33;;;;;;;6.00;1.95;;;17.80;81.90;;;;;;5092849;28;20036;-86
2021/08/06 09:00:00;;;;;;;4.70;1.73;;;17.80;82.10;;;;;;5093013;28;20051;-88
2021/08/06 09:02:26;;;;;;;6.13;2.08;;;17.80;82.40;;;;;;5092354;28;20044;-86
2021/08/06 09:05:13;;;;;;;10.77;1.92;;;17.80;82.60;;;;;;5085955;28;20052;-87
2021/08/06 09:07:40;;;;;;;8.52;1.70;;;17.90;82.60;;;;;;5093002;28;20040;-86
2021/08/06 09:10:09;;;;;;;8.80;1.70;;;17.90;82.50;;;;;;5092470;28;20446;-86
2021/08/06 09:13:01;;;;;;;9.05;1.65;;;17.80;82.60;;;;;;5087484;28;20461;-86
2021/08/06 09:15:58;;;;;;;4.07;1.42;;;17.90;82.90;;;;;;5078848;28;20537;-86
2021/08/06 09:18:26;;;;;;;5.55;1.50;;;17.80;83.00;;;;;;5078547;28;20519;-86
2021/08/06 09:20:53;;;;;;;11.48;1.75;;;17.90;83.20;;;;;;5092825;28;20052;-87
2021/08/06 09:23:47;;;;;;;5.65;1.65;;;17.90;83.30;;;;;;5094310;28;20044;-87
2021/08/06 09:26:27;;;;;;;4.95;1.77;;;17.90;83.30;;;;;;5092013;28;20044;-85
2021/08/06 09:28:58;;;;;;;8.82;2.35;;;17.90;83.20;;;;;;5092313;28;20071;-86
2021/08/06 09:31:26;;;;;;;5.47;1.60;;;17.90;83.10;;;;;;5090913;28;20048;-86
2021/08/06 09:34:17;;;;;;;6.32;1.95;;;17.90;83.00;;;;;;5090687;28;20048;-86
2021/08/06 09:37:11;;;;;;;8.10;2.05;;;17.90;82.90;;;;;;5090745;28;20060;-86
2021/08/06 09:39:57;;;;;;;6.20;1.80;;;17.90;82.70;;;;;;5089944;28;20040;-85
2021/08/06 09:42:29;;;;;;;8.45;1.80;;;17.90;82.80;;;;;;5075212;28;20049;-86
2021/08/06 09:45:07;;;;;;;6.22;2.00;;;17.90;82.80;;;;;;5090892;28;20044;-86
2021/08/06 09:47:36;;;;;;;9.40;2.10;;;17.90;82.80;;;;;;5094099;28;20191;-87
2021/08/06 09:50:09;;;;;;;8.95;1.85;;;18.00;82.80;;;;;;5090047;28;20048;-86
2021/08/06 09:52:38;;;;;;;7.28;1.67;;;18.00;83.00;;;;;;5090279;28;20448;-88
2021/08/06 09:55:30;;;;;;;6.20;1.88;;;17.90;82.80;;;;;;5091303;28;20129;-87
2021/08/06 09:58:03;;;;;;;3.88;1.63;;;17.90;82.80;;;;;;5091746;28;20051;-86
2021/08/06 10:00:32;;;;;;;;;;;18.00;82.90;;;;;;5092196;28;20040;-84
2021/08/06 10:02:59;;;;;;;7.88;1.83;;;18.00;82.90;;;;;;5091683;28;19920;-85
2021/08/06 10:05:28;;;;;;;10.80;1.83;;;18.00;83.00;;;;;;5093950;28;20048;-86
2021/08/06 10:07:58;;;;;;;7.95;1.83;;;18.00;82.90;;;;;;5091450;28;20044;-86
2021/08/06 10:10:29;;;;;;;8.80;1.60;;;18.00;82.90;;;;;;5091156;28;20040;-86
2021/08/06 10:12:57;;;;;;;4.38;1.50;;;18.00;82.90;;;;;;5091498;28;20456;-86
2021/08/06 10:15:25;;;;;;;5.35;1.40;;;18.00;82.90;;;;;;5089988;28;20052;-89
2021/08/06 10:17:54;;;;;;;5.22;1.40;;;17.90;82.90;;;;;;5090454;28;20055;-86
2021/08/06 10:20:23;;;;;;;6.20;1.88;;;17.90;82.80;;;;;;5093104;28;20105;-85
2021/08/06 10:22:51;;;;;;;5.68;1.70;;;17.90;82.80;;;;;;5089790;28;20044;-86
2021/08/06 10:25:20;;;;;;;11.90;1.70;;;17.90;82.90;;;;;;5090717;28;20044;-84
2021/08/06 10:27:49;;;;;;;4.78;1.80;;;17.90;83.00;;;;;;5091151;28;20052;-86
2021/08/06 10:30:35;;;;;;;7.57;2.40;;;17.90;83.20;;;;;;5089026;28;20052;-86
2021/08/06 10:33:24;;;;;;;5.53;1.98;;;18.00;83.90;;;;;;5091139;28;20053;-86
2021/08/06 10:36:01;;;;;;;6.55;1.88;;;18.10;84.60;;;;;;5090295;28;20113;-87
2021/08/06 10:38:40;;;;;;;4.38;1.60;;;18.30;84.90;;;;;;5091445;28;20459;-86
2021/08/06 10:41:13;;;;;;;5.03;1.70;;;18.40;85.00;;;;;;5089561;28;20498;-84
2021/08/06 10:44:04;;;;;;;3.70;1.60;;;18.60;85.00;;;;;;5085502;28;20582;-88
2021/08/06 10:47:02;;;;;;;4.35;1.35;;;18.80;84.80;;;;;;5090959;28;20044;-88
2021/08/06 10:49:31;;;;;;;4.97;1.42;;;19.00;84.60;;;;;;5084667;28;20040;-85
2021/08/06 10:52:16;;;;;;;6.18;1.80;;;19.10;83.10;;;;;;5089148;28;20097;-86
2021/08/06 10:54:44;;;;;;;3.92;1.10;;;19.30;82.80;;;;;;5091408;28;20093;-88
2021/08/06 10:57:20;;;;;;;3.10;1.20;;;19.50;82.10;;;;;;5073750;28;20056;-87
2021/08/06 10:59:48;;;;;;;3.88;1.20;;;19.60;81.30;;;;;;5092318;28;20048;-86
2021/08/06 11:02:33;;;;;;;6.13;1.60;;;19.70;80.70;;;;;;5091650;28;20059;-85
2021/08/06 11:05:22;;;;;;;5.95;1.33;;;19.70;80.00;;;;;;5088823;28;20043;-86
2021/08/06 11:07:48;;;;;;;2.60;1.10;;;19.70;79.60;;;;;;5089904;28;20052;-87
2021/08/06 11:10:49;;;;;;;4.70;1.38;;;19.70;79.60;;;;;;5089422;28;20568;-87
2021/08/06 11:13:36;;;;;;;5.70;1.30;;;19.60;79.70;;;;;;5089314;28;20044;-89
2021/08/06 11:16:10;;;;;;;4.43;1.33;;;19.60;79.80;;;;;;5089877;28;20044;-86
2021/08/06 11:18:42;;;;;;;4.80;1.30;;;19.60;79.90;;;;;;5090538;28;20039;-87
2021/08/06 11:21:10;;;;;;;5.60;1.10;;;19.50;79.70;;;;;;5074349;28;20049;-86
2021/08/06 11:23:37;;;;;;;7.35;1.80;;;19.40;79.40;;;;;;5092170;28;20051;-88
2021/08/06 11:26:08;;;;;;;4.47;1.40;;;19.40;79.10;;;;;;5113183;27;20082;-90
2021/08/06 11:28:35;;;;;;;4.07;1.23;;;19.30;79.00;;;;;;5085271;28;20047;-89
2021/08/06 11:31:14;;;;;;;7.43;1.40;;;19.20;79.00;;;;;;5090379;28;20051;-88
2021/08/06 11:33:41;;;;;;;4.70;1.42;;;19.00;78.80;;;;;;5092238;28;20127;-88
2021/08/06 11:36:15;;;;;;;6.15;1.40;;;18.90;78.70;;;;;;5089731;28;20044;-87
2021/08/06 11:38:43;;;;;;;4.95;1.48;;;18.80;78.90;;;;;;5088215;28;20494;-87
2021/08/06 11:41:10;;;;;;;4.75;1.58;;;18.60;79.10;;;;;;5088185;28;20048;-86
2021/08/06 11:43:37;;;;;;;9.85;1.50;;;18.60;79.30;;;;;;5090015;28;20036;-87
2021/08/06 11:46:11;;;;;;;6.82;1.73;;;18.40;79.50;;;;;;5090139;28;20063;-91
2021/08/06 11:48:50;;;;;;;7.30;1.90;;;18.40;79.50;;;;;;5089041;28;20040;-89
2021/08/06 11:51:19;;;;;;;7.28;2.00;;;18.30;79.80;;;;;;5073677;28;20473;-88
2021/08/06 11:53:46;;;;;;;8.98;2.10;;;18.30;80.60;;;;;;5091543;28;20044;-87
2021/08/06 11:56:20;;;;;;;8.70;2.25;;;18.30;81.10;;;;;;5090731;28;20070;-86
2021/08/06 11:58:49;;;;;;;10.55;2.30;;;18.40;81.40;;;;;;5087660;28;20056;-88
2021/08/06 12:01:20;;;;;;;6.10;1.98;;;18.40;82.10;;;;;;5089816;28;20048;-87
2021/08/06 12:03:54;;;;;;;11.85;2.17;;;18.60;82.90;;;;;;5088755;28;20474;-87
2021/08/06 12:06:22;;;;;;;9.75;1.90;;;18.60;82.70;;;;;;5087160;28;20119;-87
2021/08/06 12:08:51;;;;;;;6.57;2.28;;;18.70;82.50;;;;;;5090950;28;20453;-89
2021/08/06 12:11:22;;;;;;;5.57;1.95;;;18.80;82.20;;;;;;5091378;28;20081;-86
2021/08/06 12:14:04;;;;;;;10.05;2.40;;;18.90;82.40;;;;;;5087166;28;20502;-86
2021/08/06 12:16:39;;;;;;;7.57;2.42;;;19.10;82.60;;;;;;5089809;28;20044;-86
2021/08/06 12:19:09;;;;;;;13.40;2.33;;;19.30;82.90;;;;;;5087623;28;20040;-87
2021/08/06 12:21:41;;;;;;;8.90;2.22;;;19.40;82.70;;;;;;5089464;28;20059;-86
2021/08/06 12:24:11;;;;;;;7.38;2.00;;;19.60;82.30;;;;;;5089857;28;20113;-87
2021/08/06 12:26:45;;;;;;;7.18;2.17;;;19.90;81.10;;;;;;5086309;28;20059;-87
2021/08/06 12:29:20;;;;;;;4.82;1.55;;;20.10;80.70;;;;;;5089178;28;20047;-88
2021/08/06 12:31:54;;;;;;;5.50;1.98;;;20.30;80.40;;;;;;5089612;28;20048;-89
2021/08/06 12:34:27;;;;;;;;;;;20.40;78.50;;;;;;5089681;28;20047;-89
2021/08/06 12:37:09;;;;;;;5.25;2.28;;;20.70;78.50;;;;;;5089578;28;19981;-88
2021/08/06 12:39:47;;;;;;;;;;;20.90;77.70;;;;;;5088935;28;20063;-88
2021/08/06 12:42:21;;;;;;;6.03;1.70;;;21.00;77.40;;;;;;5076900;28;19927;-89
2021/08/06 12:45:03;;;;;;;6.97;1.65;;;21.20;76.70;;;;;;5094325;28;20101;-88
2021/08/06 12:47:45;;;;;;;4.57;1.60;;;21.20;76.40;;;;;;5093145;28;20494;-89
2021/08/06 12:50:23;;;;;;;7.72;1.95;;;21.20;76.00;;;;;;5091985;28;20109;-86
2021/08/06 12:52:59;;;;;;;8.93;1.92;;;21.20;75.50;;;;;;5091681;28;20044;-86
2021/08/06 12:55:26;;;;;;;7.68;1.85;;;21.30;75.50;;;;;;5092899;28;20052;-88
2021/08/06 12:57:55;;;;;;;6.45;1.55;;;21.30;75.80;;;;;;5092944;28;20048;-88
2021/08/06 13:00:31;;;;;;;5.30;1.67;;;21.30;75.50;;;;;;5091530;28;20048;-89